sensor_id;sensor_type;location;lat;lon;timestamp;temperature;humidity
18597;DHT22;9428;50.950;6.912;2023-06-26T00:01:48;23.90;99.90
18597;DHT22;9428;50.950;6.912;2023-06-26T00:04:36;23.90;99.90
18597;DHT22;9428;50.950;6.912;2023-06-26T00:07:24;23.90;99.90
18597;DHT22;9428;50.950;6.912;2023-06-26T00:10:11;23.90;99.90
18597;DHT22;9428;50.950;6.912;2023-06-26T00:13:00;23.90;99.90
18597;DHT22;9428;50.950;6.912;2023-06-26T00:15:47;23.80;99.90
18597;DHT22;9428;50.950;6.912;2023-06-26T00:18:35;23.80;99.90
18597;DHT22;9428;50.950;6.912;2023-06-26T00:21:22;23.70;99.90
18597;DHT22;9428;50.950;6.912;2023-06-26T00:24:09;23.70;99.90
18597;DHT22;9428;50.950;6.912;2023-06-26T00:26:56;23.70;99.90
18597;DHT22;9428;50.950;6.912;2023-06-26T00:29:46;23.70;99.90
18597;DHT22;9428;50.950;6.912;2023-06-26T00:32:33;23.70;99.90
18597;DHT22;9428;50.950;6.912;2023-06-26T00:35:20;23.60;99.90
18597;DHT22;9428;50.950;6.912;2023-06-26T00:38:07;23.60;99.90
18597;DHT22;9428;50.950;6.912;2023-06-26T00:40:55;23.60;99.90
18597;DHT22;9428;50.950;6.912;2023-06-26T00:43:42;23.70;99.90
18597;DHT22;9428;50.950;6.912;2023-06-26T00:46:31;23.60;99.90
18597;DHT22;9428;50.950;6.912;2023-06-26T00:49:19;23.50;99.90
18597;DHT22;9428;50.950;6.912;2023-06-26T00:52:07;23.50;99.90
18597;DHT22;9428;50.950;6.912;2023-06-26T00:54:55;23.50;99.90
18597;DHT22;9428;50.950;6.912;2023-06-26T00:57:42;23.60;99.90
18597;DHT22;9428;50.950;6.912;2023-06-26T01:00:31;23.50;99.90
18597;DHT22;9428;50.950;6.912;2023-06-26T01:03:21;23.40;99.90
18597;DHT22;9428;50.950;6.912;2023-06-26T01:06:11;23.50;99.90
18597;DHT22;9428;50.950;6.912;2023-06-26T01:08:59;23.40;99.90
18597;DHT22;9428;50.950;6.912;2023-06-26T01:11:47;23.40;99.90
18597;DHT22;9428;50.950;6.912;2023-06-26T01:14:34;23.30;99.90
18597;DHT22;9428;50.950;6.912;2023-06-26T01:17:22;23.30;99.90
18597;DHT22;9428;50.950;6.912;2023-06-26T01:20:12;23.30;99.90
18597;DHT22;9428;50.950;6.912;2023-06-26T01:23:07;23.20;99.90
18597;DHT22;9428;50.950;6.912;2023-06-26T01:26:14;23.20;99.90
18597;DHT22;9428;50.950;6.912;2023-06-26T01:29:03;23.20;99.90
18597;DHT22;9428;50.950;6.912;2023-06-26T01:31:51;23.20;99.90
18597;DHT22;9428;50.950;6.912;2023-06-26T01:34:39;23.20;99.90
18597;DHT22;9428;50.950;6.912;2023-06-26T01:37:26;23.20;99.90
18597;DHT22;9428;50.950;6.912;2023-06-26T01:40:13;23.10;99.90
18597;DHT22;9428;50.950;6.912;2023-06-26T01:43:03;23.10;99.90
18597;DHT22;9428;50.950;6.912;2023-06-26T01:45:52;23.00;99.90
18597;DHT22;9428;50.950;6.912;2023-06-26T01:48:46;23.10;99.90
18597;DHT22;9428;50.950;6.912;2023-06-26T01:51:38;23.10;99.90
18597;DHT22;9428;50.950;6.912;2023-06-26T01:54:30;23.10;99.90
18597;DHT22;9428;50.950;6.912;2023-06-26T01:57:20;23.00;99.90
18597;DHT22;9428;50.950;6.912;2023-06-26T02:00:11;23.20;99.90
18597;DHT22;9428;50.950;6.912;2023-06-26T02:03:00;22.90;99.90
18597;DHT22;9428;50.950;6.912;2023-06-26T02:05:47;22.90;99.90
18597;DHT22;9428;50.950;6.912;2023-06-26T02:08:35;22.90;99.90
18597;DHT22;9428;50.950;6.912;2023-06-26T02:11:22;22.90;99.90
18597;DHT22;9428;50.950;6.912;2023-06-26T02:14:09;22.80;99.90
18597;DHT22;9428;50.950;6.912;2023-06-26T02:16:59;22.70;99.90
18597;DHT22;9428;50.950;6.912;2023-06-26T02:19:47;22.80;99.90
18597;DHT22;9428;50.950;6.912;2023-06-26T02:22:34;22.80;99.90
18597;DHT22;9428;50.950;6.912;2023-06-26T02:25:22;22.80;99.90
18597;DHT22;9428;50.950;6.912;2023-06-26T02:28:09;22.70;99.90
18597;DHT22;9428;50.950;6.912;2023-06-26T02:30:56;22.60;99.90
18597;DHT22;9428;50.950;6.912;2023-06-26T02:33:45;22.60;99.90
18597;DHT22;9428;50.950;6.912;2023-06-26T02:36:32;22.60;99.90
18597;DHT22;9428;50.950;6.912;2023-06-26T02:39:19;22.60;99.90
18597;DHT22;9428;50.950;6.912;2023-06-26T02:42:06;22.60;99.90
18597;DHT22;9428;50.950;6.912;2023-06-26T02:44:54;22.60;99.90
18597;DHT22;9428;50.950;6.912;2023-06-26T02:47:41;22.50;99.90
18597;DHT22;9428;50.950;6.912;2023-06-26T02:50:29;22.40;99.90
18597;DHT22;9428;50.950;6.912;2023-06-26T02:53:17;22.40;99.90
18597;DHT22;9428;50.950;6.912;2023-06-26T02:56:04;22.40;99.90
18597;DHT22;9428;50.950;6.912;2023-06-26T02:58:52;22.40;99.90
18597;DHT22;9428;50.950;6.912;2023-06-26T03:01:39;22.50;99.90
18597;DHT22;9428;50.950;6.912;2023-06-26T03:04:27;22.50;99.90
18597;DHT22;9428;50.950;6.912;2023-06-26T03:07:16;22.40;99.90
18597;DHT22;9428;50.950;6.912;2023-06-26T03:10:03;22.70;99.90
18597;DHT22;9428;50.950;6.912;2023-06-26T03:12:51;22.70;99.90
18597;DHT22;9428;50.950;6.912;2023-06-26T03:15:38;22.70;99.90
18597;DHT22;9428;50.950;6.912;2023-06-26T03:18:25;22.70;99.90
18597;DHT22;9428;50.950;6.912;2023-06-26T03:21:13;22.70;99.90
18597;DHT22;9428;50.950;6.912;2023-06-26T03:24:01;22.80;99.90
18597;DHT22;9428;50.950;6.912;2023-06-26T03:26:49;23.10;99.90
18597;DHT22;9428;50.950;6.912;2023-06-26T03:29:37;23.60;99.90
18597;DHT22;9428;50.950;6.912;2023-06-26T03:32:24;22.70;99.90
18597;DHT22;9428;50.950;6.912;2023-06-26T03:35:11;22.70;99.90
18597;DHT22;9428;50.950;6.912;2023-06-26T03:37:59;22.70;99.90
18597;DHT22;9428;50.950;6.912;2023-06-26T03:40:48;22.70;99.90
18597;DHT22;9428;50.950;6.912;2023-06-26T03:43:35;22.70;99.90
18597;DHT22;9428;50.950;6.912;2023-06-26T03:46:23;22.50;99.90
18597;DHT22;9428;50.950;6.912;2023-06-26T03:49:10;22.60;99.90
18597;DHT22;9428;50.950;6.912;2023-06-26T03:51:57;22.60;99.90
18597;DHT22;9428;50.950;6.912;2023-06-26T03:54:44;22.50;99.90
18597;DHT22;9428;50.950;6.912;2023-06-26T03:57:33;22.60;99.90
18597;DHT22;9428;50.950;6.912;2023-06-26T04:00:20;22.50;99.90
18597;DHT22;9428;50.950;6.912;2023-06-26T04:03:08;22.50;99.90
18597;DHT22;9428;50.950;6.912;2023-06-26T04:05:55;22.50;99.90
18597;DHT22;9428;50.950;6.912;2023-06-26T04:08:43;22.40;99.90
18597;DHT22;9428;50.950;6.912;2023-06-26T04:11:30;22.40;99.90
18597;DHT22;9428;50.950;6.912;2023-06-26T04:14:19;22.40;99.90
18597;DHT22;9428;50.950;6.912;2023-06-26T04:17:06;22.50;99.90
18597;DHT22;9428;50.950;6.912;2023-06-26T04:19:53;22.60;99.90
18597;DHT22;9428;50.950;6.912;2023-06-26T04:22:41;22.60;99.90
18597;DHT22;9428;50.950;6.912;2023-06-26T04:25:28;22.50;99.90
18597;DHT22;9428;50.950;6.912;2023-06-26T04:28:15;22.50;99.90
18597;DHT22;9428;50.950;6.912;2023-06-26T04:31:04;22.40;99.90
18597;DHT22;9428;50.950;6.912;2023-06-26T04:33:51;22.50;99.90
18597;DHT22;9428;50.950;6.912;2023-06-26T04:36:40;22.50;99.90
18597;DHT22;9428;50.950;6.912;2023-06-26T04:39:32;22.50;99.90
18597;DHT22;9428;50.950;6.912;2023-06-26T04:42:22;22.50;99.90
18597;DHT22;9428;50.950;6.912;2023-06-26T04:45:09;22.50;99.90
18597;DHT22;9428;50.950;6.912;2023-06-26T04:47:57;22.50;99.90
18597;DHT22;9428;50.950;6.912;2023-06-26T04:50:46;22.50;99.90
18597;DHT22;9428;50.950;6.912;2023-06-26T04:53:39;22.40;99.90
18597;DHT22;9428;50.950;6.912;2023-06-26T04:56:26;22.60;99.90
18597;DHT22;9428;50.950;6.912;2023-06-26T04:59:16;22.50;99.90
18597;DHT22;9428;50.950;6.912;2023-06-26T05:02:05;22.60;99.90
18597;DHT22;9428;50.950;6.912;2023-06-26T05:04:53;22.50;99.90
18597;DHT22;9428;50.950;6.912;2023-06-26T05:07:41;22.50;99.90
18597;DHT22;9428;50.950;6.912;2023-06-26T05:10:29;22.60;99.90
18597;DHT22;9428;50.950;6.912;2023-06-26T05:13:16;22.50;99.90
18597;DHT22;9428;50.950;6.912;2023-06-26T05:16:05;22.50;99.90
18597;DHT22;9428;50.950;6.912;2023-06-26T05:18:54;22.50;99.90
18597;DHT22;9428;50.950;6.912;2023-06-26T05:21:43;22.40;99.90
18597;DHT22;9428;50.950;6.912;2023-06-26T05:24:31;21.70;99.90
18597;DHT22;9428;50.950;6.912;2023-06-26T05:27:19;22.30;99.90
18597;DHT22;9428;50.950;6.912;2023-06-26T05:30:09;22.30;99.90
18597;DHT22;9428;50.950;6.912;2023-06-26T05:32:57;22.20;99.90
18597;DHT22;9428;50.950;6.912;2023-06-26T05:35:46;22.20;99.90
18597;DHT22;9428;50.950;6.912;2023-06-26T05:38:37;22.30;99.90
18597;DHT22;9428;50.950;6.912;2023-06-26T05:41:25;22.50;99.90
18597;DHT22;9428;50.950;6.912;2023-06-26T05:44:13;22.50;99.90
18597;DHT22;9428;50.950;6.912;2023-06-26T05:47:00;22.30;99.90
18597;DHT22;9428;50.950;6.912;2023-06-26T05:49:47;22.20;99.90
18597;DHT22;9428;50.950;6.912;2023-06-26T05:52:35;22.10;99.90
18597;DHT22;9428;50.950;6.912;2023-06-26T05:55:25;22.00;99.90
18597;DHT22;9428;50.950;6.912;2023-06-26T05:58:13;22.00;99.90
18597;DHT22;9428;50.950;6.912;2023-06-26T06:01:01;22.00;99.90
18597;DHT22;9428;50.950;6.912;2023-06-26T06:03:48;22.10;99.90
18597;DHT22;9428;50.950;6.912;2023-06-26T06:06:35;22.20;99.90
18597;DHT22;9428;50.950;6.912;2023-06-26T06:09:23;22.30;99.90
18597;DHT22;9428;50.950;6.912;2023-06-26T06:12:12;22.30;99.90
18597;DHT22;9428;50.950;6.912;2023-06-26T06:14:59;22.40;99.90
18597;DHT22;9428;50.950;6.912;2023-06-26T06:17:46;22.40;99.90
18597;DHT22;9428;50.950;6.912;2023-06-26T06:20:34;22.30;99.90
18597;DHT22;9428;50.950;6.912;2023-06-26T06:23:21;22.30;99.90
18597;DHT22;9428;50.950;6.912;2023-06-26T06:26:09;22.40;99.90
18597;DHT22;9428;50.950;6.912;2023-06-26T06:28:57;22.40;99.90
18597;DHT22;9428;50.950;6.912;2023-06-26T06:31:48;22.40;99.90
18597;DHT22;9428;50.950;6.912;2023-06-26T06:34:35;22.20;99.90
18597;DHT22;9428;50.950;6.912;2023-06-26T06:37:22;22.40;99.90
18597;DHT22;9428;50.950;6.912;2023-06-26T06:40:11;22.20;99.90
18597;DHT22;9428;50.950;6.912;2023-06-26T06:42:58;22.30;99.90
18597;DHT22;9428;50.950;6.912;2023-06-26T06:45:47;22.20;99.90
18597;DHT22;9428;50.950;6.912;2023-06-26T06:48:34;21.90;99.90
18597;DHT22;9428;50.950;6.912;2023-06-26T06:51:21;22.20;99.90
18597;DHT22;9428;50.950;6.912;2023-06-26T06:54:09;22.20;99.90
18597;DHT22;9428;50.950;6.912;2023-06-26T06:56:56;22.10;99.90
18597;DHT22;9428;50.950;6.912;2023-06-26T06:59:43;21.90;99.90
18597;DHT22;9428;50.950;6.912;2023-06-26T07:02:31;21.80;99.90
18597;DHT22;9428;50.950;6.912;2023-06-26T07:05:19;21.90;99.90
18597;DHT22;9428;50.950;6.912;2023-06-26T07:08:06;22.00;99.90
18597;DHT22;9428;50.950;6.912;2023-06-26T07:10:53;22.20;99.90
18597;DHT22;9428;50.950;6.912;2023-06-26T07:13:42;21.90;99.90
18597;DHT22;9428;50.950;6.912;2023-06-26T07:16:29;22.10;99.90
18597;DHT22;9428;50.950;6.912;2023-06-26T07:19:18;22.20;99.90
18597;DHT22;9428;50.950;6.912;2023-06-26T07:22:05;22.30;99.90
18597;DHT22;9428;50.950;6.912;2023-06-26T07:24:52;22.40;99.90
18597;DHT22;9428;50.950;6.912;2023-06-26T07:27:40;22.30;99.90
18597;DHT22;9428;50.950;6.912;2023-06-26T07:30:28;22.40;99.90
18597;DHT22;9428;50.950;6.912;2023-06-26T07:33:15;22.50;99.90
18597;DHT22;9428;50.950;6.912;2023-06-26T07:36:04;22.30;99.90
18597;DHT22;9428;50.950;6.912;2023-06-26T07:38:51;22.40;99.90
18597;DHT22;9428;50.950;6.912;2023-06-26T07:41:39;22.50;99.90
18597;DHT22;9428;50.950;6.912;2023-06-26T07:44:26;22.40;99.90
18597;DHT22;9428;50.950;6.912;2023-06-26T07:47:14;22.50;99.90
18597;DHT22;9428;50.950;6.912;2023-06-26T07:50:01;22.20;99.90
18597;DHT22;9428;50.950;6.912;2023-06-26T07:52:50;22.40;99.90
18597;DHT22;9428;50.950;6.912;2023-06-26T07:55:39;22.80;99.90
18597;DHT22;9428;50.950;6.912;2023-06-26T07:58:26;22.90;99.90
18597;DHT22;9428;50.950;6.912;2023-06-26T08:01:13;23.10;99.90
18597;DHT22;9428;50.950;6.912;2023-06-26T08:04:01;22.80;99.90
18597;DHT22;9428;50.950;6.912;2023-06-26T08:06:48;22.80;99.90
18597;DHT22;9428;50.950;6.912;2023-06-26T08:09:37;22.70;99.90
18597;DHT22;9428;50.950;6.912;2023-06-26T08:12:24;22.80;99.90
18597;DHT22;9428;50.950;6.912;2023-06-26T08:15:12;22.80;99.90
18597;DHT22;9428;50.950;6.912;2023-06-26T08:17:59;22.70;99.90
18597;DHT22;9428;50.950;6.912;2023-06-26T08:20:46;22.90;99.90
18597;DHT22;9428;50.950;6.912;2023-06-26T08:23:34;23.00;99.90
18597;DHT22;9428;50.950;6.912;2023-06-26T08:26:23;23.00;99.90
18597;DHT22;9428;50.950;6.912;2023-06-26T08:29:10;23.00;99.90
18597;DHT22;9428;50.950;6.912;2023-06-26T08:31:58;23.30;99.90
18597;DHT22;9428;50.950;6.912;2023-06-26T08:34:45;23.40;99.90
18597;DHT22;9428;50.950;6.912;2023-06-26T08:37:32;23.30;99.90
18597;DHT22;9428;50.950;6.912;2023-06-26T08:40:20;23.20;99.90
18597;DHT22;9428;50.950;6.912;2023-06-26T08:43:10;23.30;99.90
18597;DHT22;9428;50.950;6.912;2023-06-26T08:45:57;23.50;99.90
18597;DHT22;9428;50.950;6.912;2023-06-26T08:48:48;23.40;99.90
18597;DHT22;9428;50.950;6.912;2023-06-26T08:51:37;23.10;99.90
18597;DHT22;9428;50.950;6.912;2023-06-26T08:54:28;23.10;99.90
18597;DHT22;9428;50.950;6.912;2023-06-26T08:57:18;23.20;99.90
18597;DHT22;9428;50.950;6.912;2023-06-26T09:00:09;23.30;99.90
18597;DHT22;9428;50.950;6.912;2023-06-26T09:02:56;23.50;99.90
18597;DHT22;9428;50.950;6.912;2023-06-26T09:05:44;23.40;99.90
18597;DHT22;9428;50.950;6.912;2023-06-26T09:08:31;23.60;99.90
18597;DHT22;9428;50.950;6.912;2023-06-26T09:11:18;23.50;99.90
18597;DHT22;9428;50.950;6.912;2023-06-26T09:14:06;23.30;99.90
18597;DHT22;9428;50.950;6.912;2023-06-26T09:16:57;23.30;99.90
18597;DHT22;9428;50.950;6.912;2023-06-26T09:19:45;23.50;99.90
18597;DHT22;9428;50.950;6.912;2023-06-26T09:22:34;23.60;99.90
18597;DHT22;9428;50.950;6.912;2023-06-26T09:25:23;23.60;99.90
18597;DHT22;9428;50.950;6.912;2023-06-26T09:28:11;23.60;99.90
18597;DHT22;9428;50.950;6.912;2023-06-26T09:31:01;23.50;99.90
18597;DHT22;9428;50.950;6.912;2023-06-26T09:33:59;23.30;99.90
18597;DHT22;9428;50.950;6.912;2023-06-26T09:36:46;22.90;99.90
18597;DHT22;9428;50.950;6.912;2023-06-26T09:39:35;23.30;99.90
18597;DHT22;9428;50.950;6.912;2023-06-26T09:42:26;23.50;99.90
18597;DHT22;9428;50.950;6.912;2023-06-26T09:45:20;23.60;99.90
18597;DHT22;9428;50.950;6.912;2023-06-26T09:48:07;23.60;99.90
18597;DHT22;9428;50.950;6.912;2023-06-26T09:50:56;23.60;99.90
18597;DHT22;9428;50.950;6.912;2023-06-26T09:53:43;23.30;99.90
18597;DHT22;9428;50.950;6.912;2023-06-26T09:56:32;23.40;99.90
18597;DHT22;9428;50.950;6.912;2023-06-26T09:59:19;23.30;99.90
18597;DHT22;9428;50.950;6.912;2023-06-26T10:02:06;23.60;99.90
18597;DHT22;9428;50.950;6.912;2023-06-26T10:04:54;23.70;99.90
18597;DHT22;9428;50.950;6.912;2023-06-26T10:07:43;23.50;99.90
18597;DHT22;9428;50.950;6.912;2023-06-26T10:10:33;23.60;99.90
18597;DHT22;9428;50.950;6.912;2023-06-26T10:13:25;23.50;99.90
18597;DHT22;9428;50.950;6.912;2023-06-26T10:16:16;23.30;99.90
18597;DHT22;9428;50.950;6.912;2023-06-26T10:19:06;23.40;99.90
18597;DHT22;9428;50.950;6.912;2023-06-26T10:21:55;23.30;99.90
18597;DHT22;9428;50.950;6.912;2023-06-26T10:24:46;23.40;99.90
18597;DHT22;9428;50.950;6.912;2023-06-26T10:27:37;23.60;99.90
18597;DHT22;9428;50.950;6.912;2023-06-26T10:30:28;23.60;99.90
18597;DHT22;9428;50.950;6.912;2023-06-26T10:33:18;23.40;99.90
18597;DHT22;9428;50.950;6.912;2023-06-26T10:36:13;23.40;99.90
18597;DHT22;9428;50.950;6.912;2023-06-26T10:39:04;23.70;99.90
18597;DHT22;9428;50.950;6.912;2023-06-26T10:41:55;23.70;99.90
18597;DHT22;9428;50.950;6.912;2023-06-26T10:44:43;23.60;99.90
18597;DHT22;9428;50.950;6.912;2023-06-26T10:47:31;23.60;99.90
18597;DHT22;9428;50.950;6.912;2023-06-26T10:50:20;23.70;99.90
18597;DHT22;9428;50.950;6.912;2023-06-26T10:53:11;23.60;99.90
18597;DHT22;9428;50.950;6.912;2023-06-26T10:56:01;23.60;99.90
18597;DHT22;9428;50.950;6.912;2023-06-26T10:58:49;23.60;99.90
18597;DHT22;9428;50.950;6.912;2023-06-26T11:01:40;23.80;99.90
18597;DHT22;9428;50.950;6.912;2023-06-26T11:04:39;23.90;99.90
18597;DHT22;9428;50.950;6.912;2023-06-26T11:07:26;24.00;99.90
18597;DHT22;9428;50.950;6.912;2023-06-26T11:10:16;24.00;99.90
18597;DHT22;9428;50.950;6.912;2023-06-26T11:13:05;23.80;99.90
18597;DHT22;9428;50.950;6.912;2023-06-26T11:15:54;23.90;99.90
18597;DHT22;9428;50.950;6.912;2023-06-26T11:18:42;23.90;99.90
18597;DHT22;9428;50.950;6.912;2023-06-26T11:21:31;23.90;99.90
18597;DHT22;9428;50.950;6.912;2023-06-26T11:24:19;23.90;99.90
18597;DHT22;9428;50.950;6.912;2023-06-26T11:27:07;24.30;99.90
18597;DHT22;9428;50.950;6.912;2023-06-26T11:29:54;24.10;99.90
18597;DHT22;9428;50.950;6.912;2023-06-26T11:32:43;24.00;99.90
18597;DHT22;9428;50.950;6.912;2023-06-26T11:35:30;24.00;99.90
18597;DHT22;9428;50.950;6.912;2023-06-26T11:38:19;24.30;99.90
18597;DHT22;9428;50.950;6.912;2023-06-26T11:41:06;24.40;99.90
18597;DHT22;9428;50.950;6.912;2023-06-26T11:43:54;24.50;99.90
18597;DHT22;9428;50.950;6.912;2023-06-26T11:46:42;24.20;99.90
18597;DHT22;9428;50.950;6.912;2023-06-26T11:49:31;23.80;99.90
18597;DHT22;9428;50.950;6.912;2023-06-26T11:52:18;24.30;99.90
18597;DHT22;9428;50.950;6.912;2023-06-26T11:55:08;24.30;99.90
18597;DHT22;9428;50.950;6.912;2023-06-26T11:57:57;24.10;99.90
18597;DHT22;9428;50.950;6.912;2023-06-26T12:00:47;24.30;99.90
18597;DHT22;9428;50.950;6.912;2023-06-26T12:03:34;24.40;99.90
18597;DHT22;9428;50.950;6.912;2023-06-26T12:06:23;24.30;99.90
18597;DHT22;9428;50.950;6.912;2023-06-26T12:09:11;24.30;99.90
18597;DHT22;9428;50.950;6.912;2023-06-26T12:11:59;24.20;99.90
18597;DHT22;9428;50.950;6.912;2023-06-26T12:14:47;24.20;99.90
18597;DHT22;9428;50.950;6.912;2023-06-26T12:17:38;24.60;99.90
18597;DHT22;9428;50.950;6.912;2023-06-26T12:20:26;24.80;99.90
18597;DHT22;9428;50.950;6.912;2023-06-26T12:23:18;24.40;99.90
18597;DHT22;9428;50.950;6.912;2023-06-26T12:26:18;24.30;99.90
18597;DHT22;9428;50.950;6.912;2023-06-26T12:29:05;24.30;99.90
18597;DHT22;9428;50.950;6.912;2023-06-26T12:31:53;24.30;99.90
18597;DHT22;9428;50.950;6.912;2023-06-26T12:34:41;24.40;99.90
18597;DHT22;9428;50.950;6.912;2023-06-26T12:37:28;24.70;99.90
18597;DHT22;9428;50.950;6.912;2023-06-26T12:40:20;24.60;99.90
18597;DHT22;9428;50.950;6.912;2023-06-26T12:43:11;24.50;99.90
18597;DHT22;9428;50.950;6.912;2023-06-26T12:45:58;24.60;99.90
18597;DHT22;9428;50.950;6.912;2023-06-26T12:48:45;24.70;99.90
18597;DHT22;9428;50.950;6.912;2023-06-26T12:51:33;24.60;99.90
18597;DHT22;9428;50.950;6.912;2023-06-26T12:54:20;24.60;99.90
18597;DHT22;9428;50.950;6.912;2023-06-26T12:57:09;24.50;99.90
18597;DHT22;9428;50.950;6.912;2023-06-26T12:59:56;24.60;99.90
18597;DHT22;9428;50.950;6.912;2023-06-26T13:02:45;24.60;99.90
18597;DHT22;9428;50.950;6.912;2023-06-26T13:05:32;24.60;99.90
18597;DHT22;9428;50.950;6.912;2023-06-26T13:08:20;24.50;99.90
18597;DHT22;9428;50.950;6.912;2023-06-26T13:11:07;24.60;99.90
18597;DHT22;9428;50.950;6.912;2023-06-26T13:13:56;24.60;99.90
18597;DHT22;9428;50.950;6.912;2023-06-26T13:16:44;24.60;99.90
18597;DHT22;9428;50.950;6.912;2023-06-26T13:19:31;24.30;99.90
18597;DHT22;9428;50.950;6.912;2023-06-26T13:22:18;24.30;99.90
18597;DHT22;9428;50.950;6.912;2023-06-26T13:25:06;24.40;99.90
18597;DHT22;9428;50.950;6.912;2023-06-26T13:27:53;24.30;99.90
18597;DHT22;9428;50.950;6.912;2023-06-26T13:30:42;24.10;99.90
18597;DHT22;9428;50.950;6.912;2023-06-26T13:33:30;24.20;99.70
18597;DHT22;9428;50.950;6.912;2023-06-26T13:36:17;24.10;99.90
18597;DHT22;9428;50.950;6.912;2023-06-26T13:39:04;23.80;99.60
18597;DHT22;9428;50.950;6.912;2023-06-26T13:41:53;23.80;99.90
18597;DHT22;9428;50.950;6.912;2023-06-26T13:44:40;24.30;98.90
18597;DHT22;9428;50.950;6.912;2023-06-26T13:47:29;24.30;97.60
18597;DHT22;9428;50.950;6.912;2023-06-26T13:50:16;24.40;98.50
18597;DHT22;9428;50.950;6.912;2023-06-26T13:53:03;24.40;98.50
18597;DHT22;9428;50.950;6.912;2023-06-26T13:55:51;24.30;98.80
18597;DHT22;9428;50.950;6.912;2023-06-26T13:58:39;24.30;98.20
18597;DHT22;9428;50.950;6.912;2023-06-26T14:01:26;24.20;97.50
18597;DHT22;9428;50.950;6.912;2023-06-26T14:04:14;24.30;97.30
18597;DHT22;9428;50.950;6.912;2023-06-26T14:07:02;24.00;96.40
18597;DHT22;9428;50.950;6.912;2023-06-26T14:09:49;24.00;97.10
18597;DHT22;9428;50.950;6.912;2023-06-26T14:12:37;23.80;96.70
18597;DHT22;9428;50.950;6.912;2023-06-26T14:15:24;24.00;95.20
18597;DHT22;9428;50.950;6.912;2023-06-26T14:18:11;24.10;95.20
18597;DHT22;9428;50.950;6.912;2023-06-26T14:21:00;24.20;94.60
18597;DHT22;9428;50.950;6.912;2023-06-26T14:23:49;24.30;94.40
18597;DHT22;9428;50.950;6.912;2023-06-26T14:26:36;24.30;95.20
18597;DHT22;9428;50.950;6.912;2023-06-26T14:29:24;24.30;96.00
18597;DHT22;9428;50.950;6.912;2023-06-26T14:32:11;24.20;95.80
18597;DHT22;9428;50.950;6.912;2023-06-26T14:34:59;24.30;96.90
18597;DHT22;9428;50.950;6.912;2023-06-26T14:37:48;24.40;96.30
18597;DHT22;9428;50.950;6.912;2023-06-26T14:40:35;24.30;96.40
18597;DHT22;9428;50.950;6.912;2023-06-26T14:43:22;24.30;97.70
18597;DHT22;9428;50.950;6.912;2023-06-26T14:46:09;24.40;97.50
18597;DHT22;9428;50.950;6.912;2023-06-26T14:48:57;24.50;95.70
18597;DHT22;9428;50.950;6.912;2023-06-26T14:51:44;24.20;95.40
18597;DHT22;9428;50.950;6.912;2023-06-26T14:54:32;24.40;96.70
18597;DHT22;9428;50.950;6.912;2023-06-26T14:57:22;24.20;96.40
18597;DHT22;9428;50.950;6.912;2023-06-26T15:00:10;24.20;96.30
18597;DHT22;9428;50.950;6.912;2023-06-26T15:02:57;24.40;95.80
18597;DHT22;9428;50.950;6.912;2023-06-26T15:05:44;24.50;95.10
18597;DHT22;9428;50.950;6.912;2023-06-26T15:08:32;24.60;94.80
18597;DHT22;9428;50.950;6.912;2023-06-26T15:11:20;24.30;96.10
18597;DHT22;9428;50.950;6.912;2023-06-26T15:14:07;24.40;95.70
18597;DHT22;9428;50.950;6.912;2023-06-26T15:16:55;24.30;94.80
18597;DHT22;9428;50.950;6.912;2023-06-26T15:19:42;24.20;93.10
18597;DHT22;9428;50.950;6.912;2023-06-26T15:22:29;24.30;92.50
18597;DHT22;9428;50.950;6.912;2023-06-26T15:25:16;24.10;91.50
18597;DHT22;9428;50.950;6.912;2023-06-26T15:28:05;24.30;90.30
18597;DHT22;9428;50.950;6.912;2023-06-26T15:30:53;24.30;91.40
18597;DHT22;9428;50.950;6.912;2023-06-26T15:33:40;24.30;89.50
18597;DHT22;9428;50.950;6.912;2023-06-26T15:36:27;24.10;90.60
18597;DHT22;9428;50.950;6.912;2023-06-26T15:39:16;24.10;91.10
18597;DHT22;9428;50.950;6.912;2023-06-26T15:42:04;24.00;91.80
18597;DHT22;9428;50.950;6.912;2023-06-26T15:44:53;24.10;91.60
18597;DHT22;9428;50.950;6.912;2023-06-26T15:47:41;24.00;90.30
18597;DHT22;9428;50.950;6.912;2023-06-26T15:50:28;24.00;90.50
18597;DHT22;9428;50.950;6.912;2023-06-26T15:53:16;24.00;91.80
18597;DHT22;9428;50.950;6.912;2023-06-26T15:56:07;24.00;91.00
18597;DHT22;9428;50.950;6.912;2023-06-26T15:58:55;24.00;91.90
18597;DHT22;9428;50.950;6.912;2023-06-26T16:01:43;24.00;92.10
18597;DHT22;9428;50.950;6.912;2023-06-26T16:04:31;24.00;92.60
18597;DHT22;9428;50.950;6.912;2023-06-26T16:07:18;23.90;93.70
18597;DHT22;9428;50.950;6.912;2023-06-26T16:10:06;23.80;93.60
18597;DHT22;9428;50.950;6.912;2023-06-26T16:12:54;23.90;93.90
18597;DHT22;9428;50.950;6.912;2023-06-26T16:15:41;24.00;93.10
18597;DHT22;9428;50.950;6.912;2023-06-26T16:18:30;23.90;92.80
18597;DHT22;9428;50.950;6.912;2023-06-26T16:21:17;23.70;92.80
18597;DHT22;9428;50.950;6.912;2023-06-26T16:24:05;23.60;93.90
18597;DHT22;9428;50.950;6.912;2023-06-26T16:26:53;23.70;93.10
18597;DHT22;9428;50.950;6.912;2023-06-26T16:29:40;23.70;92.90
18597;DHT22;9428;50.950;6.912;2023-06-26T16:32:27;23.60;92.70
18597;DHT22;9428;50.950;6.912;2023-06-26T16:35:16;23.50;92.30
18597;DHT22;9428;50.950;6.912;2023-06-26T16:38:05;23.40;92.90
18597;DHT22;9428;50.950;6.912;2023-06-26T16:40:53;23.40;92.20
18597;DHT22;9428;50.950;6.912;2023-06-26T16:43:40;23.50;92.40
18597;DHT22;9428;50.950;6.912;2023-06-26T16:46:28;23.50;93.20
18597;DHT22;9428;50.950;6.912;2023-06-26T16:49:15;23.40;92.70
18597;DHT22;9428;50.950;6.912;2023-06-26T16:52:07;23.20;92.70
18597;DHT22;9428;50.950;6.912;2023-06-26T16:54:54;23.20;93.10
18597;DHT22;9428;50.950;6.912;2023-06-26T16:57:42;23.20;93.60
18597;DHT22;9428;50.950;6.912;2023-06-26T17:00:29;23.20;93.90
18597;DHT22;9428;50.950;6.912;2023-06-26T17:03:17;23.10;93.90
18597;DHT22;9428;50.950;6.912;2023-06-26T17:06:06;23.20;94.10
18597;DHT22;9428;50.950;6.912;2023-06-26T17:08:56;22.60;92.90
18597;DHT22;9428;50.950;6.912;2023-06-26T17:11:44;23.00;93.50
18597;DHT22;9428;50.950;6.912;2023-06-26T17:14:31;23.00;93.40
18597;DHT22;9428;50.950;6.912;2023-06-26T17:17:18;22.90;93.20
18597;DHT22;9428;50.950;6.912;2023-06-26T17:20:08;22.90;93.90
18597;DHT22;9428;50.950;6.912;2023-06-26T17:22:56;23.00;95.10
18597;DHT22;9428;50.950;6.912;2023-06-26T17:25:46;23.00;94.10
18597;DHT22;9428;50.950;6.912;2023-06-26T17:28:33;23.10;94.30
18597;DHT22;9428;50.950;6.912;2023-06-26T17:31:20;23.00;94.20
18597;DHT22;9428;50.950;6.912;2023-06-26T17:34:08;22.70;95.10
18597;DHT22;9428;50.950;6.912;2023-06-26T17:36:57;22.80;95.70
18597;DHT22;9428;50.950;6.912;2023-06-26T17:39:44;22.70;95.60
18597;DHT22;9428;50.950;6.912;2023-06-26T17:42:33;22.70;96.10
18597;DHT22;9428;50.950;6.912;2023-06-26T17:45:25;22.60;96.90
18597;DHT22;9428;50.950;6.912;2023-06-26T17:48:15;22.50;97.00
18597;DHT22;9428;50.950;6.912;2023-06-26T17:51:02;21.60;97.00
18597;DHT22;9428;50.950;6.912;2023-06-26T17:53:53;22.50;97.40
18597;DHT22;9428;50.950;6.912;2023-06-26T17:56:40;22.40;97.50
18597;DHT22;9428;50.950;6.912;2023-06-26T17:59:30;22.40;97.80